Delta Virtual Airport Information Service

Tampa International Airport

ICAO: KTPA Country: United States
Latitude: 27.9755 Longitude: -82.5332
Latest Arrival : FFT2539 (KPWM-KTPA) Latest Departure : NKS8914 (KTPA-KMCO)


WX CaptureLIVE
Data provided by noaa.gov | Fetched at 23:55:00

METAR : KTPA 250353Z 09008G14KT 10SM BKN019 BKN027 OVC110 26/21 A2995 RMK AO2 SLP142 T02610206

TAF : KTPA 250301Z 2503/2606 10010KT P6SM BKN015 BKN120 OVC250 FM250400 09007KT P6SM VCSH FEW007 SCT015 OVC025 FM251200 07008KT 5SM -RA BKN007 OVC015 FM251600 08010G18KT 3SM -RA VCTS BKN007CB OVC015 FM260300 06010KT P6SM -RA FEW015 SCT025 BKN060


Runway Data for KTPA
Data provided by openaviationdata.com

Runway ID Mag Var Hdg Length Elevation Surface ILS Freq ILS Id ILS Slope
9 -2 93° 6992 ft 26 ft Concrete -- -- --
18L -2 183° 8323 ft 26 ft Concrete 110.3 ITPA 3
18R -2 183° 11032 ft 26 ft Concrete 108.5 IJRT 3
27 -2 273° 6992 ft 26 ft Concrete -- -- --
36L -2 11032 ft 26 ft Concrete 108.9 IAMP 3
36R -2 8323 ft 26 ft Concrete 111.95 ITWJ 0

Tampa International Airport, United States
Use only for reference purposes



Not for navigational purposes.